Time;durP1;ratioP1;P1;durP2;ratioP2;P2;SDS_P1;SDS_P2;PMS_P1;PMS_P2;Temp;Humidity;BMP_temperature;BMP_pressure;BME280_temperature;BME280_humidity;BME280_pressure;Samples;Min_cycle;Max_cycle;Signal;HPM_P1;HPM_P2
2022/11/30 00:00:51;;;;;;;3.65;2.15;;;;;;;;;;5110250;28;20046;-51
2022/11/30 00:03:17;;;;;;;4.10;2.88;;;;;;;;;;5109764;28;20023;-53
2022/11/30 00:05:43;;;;;;;2.63;1.90;;;;;;;;;;5109953;28;20024;-50
2022/11/30 00:08:09;;;;;;;3.15;1.80;;;;;;;;;;5108977;28;20054;-53
2022/11/30 00:10:37;;;;;;;2.95;2.40;;;;;;;;;;5109940;28;20483;-52
2022/11/30 00:13:03;;;;;;;3.67;2.25;;;;;;;;;;5110171;28;20072;-51
2022/11/30 00:15:29;;;;;;;1.98;1.63;;;;;;;;;;5109651;28;20027;-53
2022/11/30 00:17:56;;;;;;;1.98;1.77;;;;;;;;;;5109630;28;20486;-53
2022/11/30 00:20:23;;;;;;;2.50;1.52;;;;;;;;;;5109598;28;20028;-53
2022/11/30 00:22:49;;;;;;;2.97;1.90;;;;;;;;;;5109885;28;20326;-55
2022/11/30 00:25:15;;;;;;;2.88;1.63;;;;;;;;;;5109466;28;20490;-53
2022/11/30 00:27:41;;;;;;;2.08;1.80;;;;;;;;;;5108588;28;20471;-51
2022/11/30 00:30:07;;;;;;;2.53;1.83;;;;;;;;;;5109239;28;20061;-53
2022/11/30 00:32:33;;;;;;;3.35;1.27;;;;;;;;;;5110046;28;20027;-53
2022/11/30 00:34:59;;;;;;;2.30;1.70;;;;;;;;;;5109466;28;20027;-53
2022/11/30 00:37:25;;;;;;;1.90;1.50;;;;;;;;;;5109076;28;20501;-52
2022/11/30 00:39:51;;;;;;;4.15;2.10;;;;;;;;;;5109391;28;20026;-54
2022/11/30 00:42:17;;;;;;;2.15;1.58;;;;;;;;;;5094801;28;20032;-53
2022/11/30 00:44:43;;;;;;;2.03;1.58;;;;;;;;;;5088821;28;20054;-53
2022/11/30 00:47:09;;;;;;;3.13;1.80;;;;;;;;;;5087950;28;20031;-53
2022/11/30 00:49:35;;;;;;;3.50;2.30;;;;;;;;;;5088895;28;20086;-51
2022/11/30 00:52:01;;;;;;;2.10;1.75;;;;;;;;;;5089420;28;20510;-53
2022/11/30 00:54:27;;;;;;;2.50;1.75;;;;;;;;;;5088556;28;20028;-53
2022/11/30 00:56:53;;;;;;;2.67;1.70;;;;;;;;;;5088687;28;20020;-53
2022/11/30 00:59:19;;;;;;;2.47;1.77;;;;;;;;;;5088389;28;20402;-52
2022/11/30 01:01:45;;;;;;;2.70;1.90;;;;;;;;;;5100767;28;20020;-53
2022/11/30 06:11:14;;;;;;;7.63;4.50;;;;;;;;;;5091266;28;20132;-53
2022/11/30 06:13:41;;;;;;;8.27;5.43;;;;;;;;;;5091287;28;20384;-53
2022/11/30 06:16:07;;;;;;;8.52;4.80;;;;;;;;;;5091233;28;20057;-54
2022/11/30 06:18:33;;;;;;;8.35;4.93;;;;;;;;;;5091228;28;20106;-54
2022/11/30 06:21:04;;;;;;;8.27;5.25;;;;;;;;;;5090772;28;20162;-54
2022/11/30 06:23:30;;;;;;;9.15;5.53;;;;;;;;;;5091481;28;20028;-54
2022/11/30 06:25:56;;;;;;;7.68;4.90;;;;;;;;;;5091343;28;20514;-51
2022/11/30 06:28:23;;;;;;;8.73;4.47;;;;;;;;;;5091233;28;20367;-55
2022/11/30 06:30:49;;;;;;;9.23;4.82;;;;;;;;;;5098307;28;20505;-55
2022/11/30 06:33:15;;;;;;;8.10;4.53;;;;;;;;;;5111487;28;20035;-51
2022/11/30 06:35:47;;;;;;;8.05;4.65;;;;;;;;;;5108846;28;20020;-56
2022/11/30 06:38:13;;;;;;;6.30;4.30;;;;;;;;;;5111334;28;20034;-54
2022/11/30 06:40:39;;;;;;;6.38;3.92;;;;;;;;;;5093157;28;20019;-55
2022/11/30 06:43:05;;;;;;;7.93;4.70;;;;;;;;;;5108032;28;20024;-54
2022/11/30 06:45:31;;;;;;;6.43;4.03;;;;;;;;;;5114722;28;20020;-54
2022/11/30 06:47:58;;;;;;;6.80;4.55;;;;;;;;;;5115371;28;20098;-55
2022/11/30 06:50:24;;;;;;;5.88;3.95;;;;;;;;;;5115177;28;20565;-54
2022/11/30 06:52:50;;;;;;;7.38;4.38;;;;;;;;;;5115182;28;20429;-55
2022/11/30 06:55:16;;;;;;;8.63;4.68;;;;;;;;;;5115190;28;20080;-55
2022/11/30 06:57:42;;;;;;;7.50;4.35;;;;;;;;;;5107315;28;20063;-53
2022/11/30 07:00:08;;;;;;;6.05;4.03;;;;;;;;;;5094446;28;20086;-52
2022/11/30 07:02:34;;;;;;;7.10;4.15;;;;;;;;;;5113237;28;20023;-55
2022/11/30 07:05:00;;;;;;;7.97;4.50;;;;;;;;;;5115212;28;20063;-55
2022/11/30 07:07:28;;;;;;;7.13;4.25;;;;;;;;;;5108749;28;20023;-53
2022/11/30 07:09:54;;;;;;;6.47;4.13;;;;;;;;;;5114863;28;20474;-55
2022/11/30 07:12:20;;;;;;;6.57;4.30;;;;;;;;;;5113242;28;20046;-55
2022/11/30 07:14:46;;;;;;;5.80;3.72;;;;;;;;;;5103107;28;20392;-54
2022/11/30 07:17:12;;;;;;;6.50;3.95;;;;;;;;;;5114272;28;20031;-55
2022/11/30 07:19:38;;;;;;;6.82;4.38;;;;;;;;;;5114495;28;20049;-56
2022/11/30 07:22:04;;;;;;;7.10;4.72;;;;;;;;;;5107127;28;20373;-54
2022/11/30 07:27:15;;;;;;;6.60;4.43;;;;;;;;;;5106179;28;20112;-56
2022/11/30 07:29:41;;;;;;;7.32;4.93;;;;;;;;;;5103665;28;20102;-55
2022/11/30 07:32:07;;;;;;;7.18;4.35;;;;;;;;;;5113707;28;20032;-54
2022/11/30 07:34:33;;;;;;;7.50;4.32;;;;;;;;;;5112751;28;20046;-55
2022/11/30 07:36:59;;;;;;;7.90;4.13;;;;;;;;;;5111128;27;20027;-55
2022/11/30 07:39:25;;;;;;;7.20;4.55;;;;;;;;;;5098260;28;20032;-54
2022/11/30 07:41:51;;;;;;;7.38;4.95;;;;;;;;;;5095059;28;20169;-54
2022/11/30 07:44:17;;;;;;;7.05;4.03;;;;;;;;;;5113798;28;20025;-56
2022/11/30 07:46:43;;;;;;;9.38;5.05;;;;;;;;;;5114089;28;20478;-54
2022/11/30 07:49:09;;;;;;;7.70;4.50;;;;;;;;;;5114022;28;20031;-55
2022/11/30 07:51:36;;;;;;;6.85;3.90;;;;;;;;;;5101633;28;20020;-55
2022/11/30 07:54:02;;;;;;;7.97;4.78;;;;;;;;;;5093634;28;20050;-56
2022/11/30 07:56:28;;;;;;;10.20;5.47;;;;;;;;;;5092353;28;20472;-56
2022/11/30 07:58:56;;;;;;;8.90;5.10;;;;;;;;;;5093174;28;20024;-53
2022/11/30 08:01:23;;;;;;;8.75;4.93;;;;;;;;;;5100280;28;20028;-55
2022/11/30 08:03:49;;;;;;;9.05;5.30;;;;;;;;;;5113529;28;20382;-53
2022/11/30 08:06:20;;;;;;;10.32;5.93;;;;;;;;;;5087468;28;20485;-52
2022/11/30 08:08:47;;;;;;;8.90;5.25;;;;;;;;;;5113566;28;20031;-54
2022/11/30 08:11:14;;;;;;;12.80;7.22;;;;;;;;;;5097913;28;20093;-55
2022/11/30 08:13:40;;;;;;;10.88;6.95;;;;;;;;;;5100308;28;20051;-54
2022/11/30 08:16:11;;;;;;;12.02;6.40;;;;;;;;;;5094118;28;20043;-55
2022/11/30 08:18:37;;;;;;;9.82;5.85;;;;;;;;;;5107746;28;20059;-55
2022/11/30 08:21:04;;;;;;;8.23;5.03;;;;;;;;;;5093896;28;20035;-55
2022/11/30 08:23:31;;;;;;;7.72;5.07;;;;;;;;;;5102303;28;20031;-55
2022/11/30 08:26:11;;;;;;;7.00;4.85;;;;;;;;;;5108649;28;20038;-55
2022/11/30 08:28:37;;;;;;;7.80;4.80;;;;;;;;;;5112163;27;20034;-55
2022/11/30 08:31:04;;;;;;;7.78;4.93;;;;;;;;;;5094575;27;20104;-55
2022/11/30 08:33:31;;;;;;;8.93;5.47;;;;;;;;;;5095014;28;20019;-55
2022/11/30 08:36:06;;;;;;;9.65;5.28;;;;;;;;;;5109853;28;20613;-54
2022/11/30 08:38:32;;;;;;;8.52;4.40;;;;;;;;;;5096172;28;20027;-54
2022/11/30 08:40:58;;;;;;;6.65;4.55;;;;;;;;;;5098257;27;20094;-55
2022/11/30 08:43:24;;;;;;;6.72;4.35;;;;;;;;;;5098503;28;20024;-55
2022/11/30 08:45:50;;;;;;;7.10;4.70;;;;;;;;;;5106394;27;20056;-56
2022/11/30 08:48:16;;;;;;;7.72;4.10;;;;;;;;;;5112022;27;20506;-55
2022/11/30 08:50:42;;;;;;;7.38;4.82;;;;;;;;;;5102872;27;20534;-54
2022/11/30 08:53:08;;;;;;;7.10;4.65;;;;;;;;;;5108929;28;20106;-55
2022/11/30 08:55:34;;;;;;;5.80;4.28;;;;;;;;;;5109496;28;20534;-55
2022/11/30 08:58:00;;;;;;;6.55;4.18;;;;;;;;;;5110302;28;20077;-55
2022/11/30 09:00:26;;;;;;;7.10;4.32;;;;;;;;;;5101123;28;20415;-55
2022/11/30 09:02:52;;;;;;;5.50;4.10;;;;;;;;;;5094121;28;20027;-56
2022/11/30 09:05:18;;;;;;;5.43;4.05;;;;;;;;;;5102265;27;20019;-56
2022/11/30 09:07:44;;;;;;;5.75;4.15;;;;;;;;;;5130951;27;20031;-56
2022/11/30 09:10:10;;;;;;;7.28;4.60;;;;;;;;;;5120031;27;20091;-56
2022/11/30 09:12:37;;;;;;;5.65;4.07;;;;;;;;;;5099770;28;20035;-56
2022/11/30 09:15:04;;;;;;;6.13;3.78;;;;;;;;;;5088833;27;20117;-56
2022/11/30 09:17:32;;;;;;;6.10;3.88;;;;;;;;;;5102446;28;20035;-54
2022/11/30 09:19:58;;;;;;;6.30;4.28;;;;;;;;;;5109103;28;20509;-55
2022/11/30 09:22:24;;;;;;;7.03;4.20;;;;;;;;;;5108582;28;20028;-55
2022/11/30 09:24:50;;;;;;;9.13;4.80;;;;;;;;;;5108153;28;20026;-55
2022/11/30 09:27:16;;;;;;;6.35;4.18;;;;;;;;;;5091304;28;20028;-54
2022/11/30 09:29:42;;;;;;;7.63;4.00;;;;;;;;;;5097419;28;20023;-55
2022/11/30 09:32:08;;;;;;;5.72;4.00;;;;;;;;;;5109576;28;20100;-56
2022/11/30 09:34:34;;;;;;;6.93;4.43;;;;;;;;;;5108426;28;20031;-56
2022/11/30 09:37:01;;;;;;;7.28;4.38;;;;;;;;;;5099706;27;20476;-55
2022/11/30 09:39:27;;;;;;;8.15;4.85;;;;;;;;;;5100568;28;20558;-55
2022/11/30 09:41:56;;;;;;;9.07;4.82;;;;;;;;;;5097802;28;20032;-55
2022/11/30 09:44:34;;;;;;;6.47;4.30;;;;;;;;;;5098288;28;20445;-54
2022/11/30 09:47:03;;;;;;;5.47;3.70;;;;;;;;;;5097604;28;20035;-55
2022/11/30 09:49:37;;;;;;;6.50;3.58;;;;;;;;;;5100999;28;20058;-55
2022/11/30 09:52:05;;;;;;;5.05;3.33;;;;;;;;;;5098811;27;20035;-55
2022/11/30 09:54:36;;;;;;;5.15;3.22;;;;;;;;;;5098998;28;20054;-55
2022/11/30 09:57:16;;;;;;;4.97;2.95;;;;;;;;;;5096593;28;20782;-54
2022/11/30 09:59:46;;;;;;;5.15;3.45;;;;;;;;;;5101461;28;20035;-54
2022/11/30 10:02:18;;;;;;;6.03;3.40;;;;;;;;;;5099546;28;20038;-56
2022/11/30 10:04:44;;;;;;;5.72;4.03;;;;;;;;;;5100505;28;20462;-55
2022/11/30 10:07:25;;;;;;;4.65;2.95;;;;;;;;;;5091290;28;20039;-55
2022/11/30 10:10:05;;;;;;;5.35;3.05;;;;;;;;;;5099426;28;20510;-56
2022/11/30 10:12:35;;;;;;;7.28;3.63;;;;;;;;;;5096291;28;20435;-54
2022/11/30 10:15:10;;;;;;;3.70;2.97;;;;;;;;;;5100305;28;20065;-56
2022/11/30 10:17:54;;;;;;;5.05;3.03;;;;;;;;;;5098624;28;20141;-55
2022/11/30 10:20:42;;;;;;;4.35;2.92;;;;;;;;;;5095633;28;20024;-53
2022/11/30 10:23:14;;;;;;;4.03;2.88;;;;;;;;;;5104517;28;20124;-54
2022/11/30 10:25:49;;;;;;;5.28;3.25;;;;;;;;;;5099735;28;20059;-56
2022/11/30 10:28:23;;;;;;;3.65;2.70;;;;;;;;;;5103449;28;20428;-55
2022/11/30 10:30:49;;;;;;;3.72;2.45;;;;;;;;;;5102312;28;20035;-55
2022/11/30 10:33:19;;;;;;;4.32;3.42;;;;;;;;;;5104227;28;20410;-55
2022/11/30 10:35:46;;;;;;;3.13;2.50;;;;;;;;;;5100311;28;20031;-53
2022/11/30 10:38:30;;;;;;;3.40;2.50;;;;;;;;;;5103860;28;20035;-56
2022/11/30 10:41:02;;;;;;;4.43;2.75;;;;;;;;;;5104066;28;20080;-55
2022/11/30 10:43:51;;;;;;;2.88;2.38;;;;;;;;;;5102200;28;20047;-55
2022/11/30 10:46:27;;;;;;;4.63;2.50;;;;;;;;;;5088522;28;20043;-55
2022/11/30 10:49:05;;;;;;;5.15;2.95;;;;;;;;;;5104445;28;20136;-55
2022/11/30 10:51:33;;;;;;;4.47;2.67;;;;;;;;;;5102908;28;20462;-56
2022/11/30 10:53:59;;;;;;;6.53;4.45;;;;;;;;;;5103621;28;20032;-54
2022/11/30 10:56:25;;;;;;;5.78;3.88;;;;;;;;;;5100936;28;20098;-54
2022/11/30 10:59:03;;;;;;;4.55;3.17;;;;;;;;;;5103958;28;20038;-53
2022/11/30 11:01:36;;;;;;;4.93;3.75;;;;;;;;;;5103262;28;20047;-53
2022/11/30 11:04:08;;;;;;;3.90;3.13;;;;;;;;;;5104709;28;20024;-53
2022/11/30 11:06:35;;;;;;;4.70;3.15;;;;;;;;;;5097279;28;20096;-53
2022/11/30 11:09:19;;;;;;;5.40;3.75;;;;;;;;;;5103756;28;20046;-54
2022/11/30 11:11:52;;;;;;;5.90;4.25;;;;;;;;;;5101935;28;20019;-54
2022/11/30 11:14:20;;;;;;;4.43;3.28;;;;;;;;;;5103100;28;20051;-54
2022/11/30 11:16:53;;;;;;;6.07;3.08;;;;;;;;;;5100088;28;20024;-54
2022/11/30 11:19:42;;;;;;;6.05;4.00;;;;;;;;;;5101586;28;20055;-54
2022/11/30 11:22:22;;;;;;;5.28;3.75;;;;;;;;;;5100276;28;20024;-52
2022/11/30 11:24:49;;;;;;;4.43;2.95;;;;;;;;;;5102967;28;20402;-54
2022/11/30 11:27:21;;;;;;;4.97;3.70;;;;;;;;;;5099748;28;20024;-54
2022/11/30 11:29:57;;;;;;;7.13;4.18;;;;;;;;;;5103019;28;20036;-54
2022/11/30 11:32:24;;;;;;;7.93;4.45;;;;;;;;;;5100999;28;20024;-54
2022/11/30 11:34:50;;;;;;;11.32;5.70;;;;;;;;;;5103059;28;20026;-54
2022/11/30 11:37:19;;;;;;;8.15;4.47;;;;;;;;;;5099055;28;20526;-54
2022/11/30 11:39:57;;;;;;;10.73;6.07;;;;;;;;;;5104111;28;20023;-55
2022/11/30 11:42:23;;;;;;;16.17;7.00;;;;;;;;;;5101227;28;20134;-53
2022/11/30 11:44:51;;;;;;;14.77;6.75;;;;;;;;;;5103372;28;20019;-54
2022/11/30 11:47:25;;;;;;;13.60;6.68;;;;;;;;;;5099098;28;20047;-53
2022/11/30 11:49:52;;;;;;;13.13;6.45;;;;;;;;;;5101841;28;20024;-54
2022/11/30 11:52:18;;;;;;;21.77;9.52;;;;;;;;;;5101263;28;20031;-54
2022/11/30 11:54:52;;;;;;;26.83;10.90;;;;;;;;;;5103604;28;20027;-53
2022/11/30 11:57:18;;;;;;;;;;;;;;;;;;5099145;28;20034;-55
2022/11/30 11:59:56;;;;;;;18.38;8.30;;;;;;;;;;5102443;28;19912;-53
2022/11/30 12:02:45;;;;;;;17.10;9.18;;;;;;;;;;5100184;28;20047;-54
2022/11/30 12:05:15;;;;;;;10.52;6.43;;;;;;;;;;5045877;28;20048;-53
2022/11/30 12:07:50;;;;;;;11.60;6.00;;;;;;;;;;5097483;28;20078;-54
2022/11/30 12:10:19;;;;;;;8.63;5.00;;;;;;;;;;5101862;28;20055;-51
2022/11/30 12:12:45;;;;;;;7.68;4.93;;;;;;;;;;5100436;28;20035;-54
2022/11/30 12:15:11;;;;;;;8.40;4.68;;;;;;;;;;5100118;28;20511;-53
2022/11/30 12:17:50;;;;;;;8.85;4.72;;;;;;;;;;5100928;28;20077;-54
2022/11/30 12:20:19;;;;;;;7.15;4.28;;;;;;;;;;5103073;28;20051;-52
2022/11/30 12:22:54;;;;;;;6.03;3.95;;;;;;;;;;5099713;28;20055;-54
2022/11/30 12:25:27;;;;;;;4.88;3.60;;;;;;;;;;5098426;28;20028;-54
2022/11/30 12:28:12;;;;;;;4.47;2.83;;;;;;;;;;5100405;28;20116;-53
2022/11/30 12:30:57;;;;;;;6.38;4.07;;;;;;;;;;5104491;27;20140;-53
2022/11/30 12:33:23;;;;;;;;;;;;;;;;;;5097036;28;20032;-54
2022/11/30 12:35:49;;;;;;;5.32;3.53;;;;;;;;;;5102067;28;19908;-54
2022/11/30 12:38:18;;;;;;;5.30;3.20;;;;;;;;;;5102507;28;20043;-54
2022/11/30 12:40:47;;;;;;;4.47;3.22;;;;;;;;;;5102590;28;20036;-54
2022/11/30 12:43:16;;;;;;;3.55;3.00;;;;;;;;;;5101598;28;20138;-53
2022/11/30 12:45:43;;;;;;;3.90;2.50;;;;;;;;;;5101694;28;20043;-55
2022/11/30 12:48:24;;;;;;;3.58;2.58;;;;;;;;;;5101785;28;20489;-55
2022/11/30 12:51:05;;;;;;;5.40;2.92;;;;;;;;;;5102594;28;20375;-54
2022/11/30 12:53:53;;;;;;;3.50;2.63;;;;;;;;;;5103354;28;20459;-55
2022/11/30 12:56:25;;;;;;;3.10;2.38;;;;;;;;;;5093278;28;20110;-55
2022/11/30 12:58:58;;;;;;;3.25;2.38;;;;;;;;;;5103260;28;20051;-55
2022/11/30 13:01:40;;;;;;;3.13;2.50;;;;;;;;;;5099087;28;20111;-54
2022/11/30 13:04:26;;;;;;;2.70;2.13;;;;;;;;;;5103457;28;20741;-55
2022/11/30 13:07:12;;;;;;;3.78;2.53;;;;;;;;;;5100472;28;20065;-55
2022/11/30 13:09:45;;;;;;;3.90;2.55;;;;;;;;;;5100569;28;20043;-54
2022/11/30 13:12:13;;;;;;;3.13;2.40;;;;;;;;;;5085906;28;20051;-55
2022/11/30 13:14:40;;;;;;;5.82;3.15;;;;;;;;;;5083919;28;20028;-54
2022/11/30 13:17:17;;;;;;;4.07;2.92;;;;;;;;;;5079772;28;20550;-54
2022/11/30 13:19:43;;;;;;;3.72;2.53;;;;;;;;;;5081889;28;20115;-55
2022/11/30 13:22:14;;;;;;;4.57;3.25;;;;;;;;;;5082045;28;20135;-55
2022/11/30 13:24:43;;;;;;;3.92;2.55;;;;;;;;;;5080983;28;20028;-55
2022/11/30 13:27:09;;;;;;;5.63;2.80;;;;;;;;;;5076269;28;20024;-55
2022/11/30 13:29:39;;;;;;;4.55;3.30;;;;;;;;;;5080797;28;20423;-54
2022/11/30 13:32:07;;;;;;;3.85;2.70;;;;;;;;;;5078356;28;20157;-55
2022/11/30 13:34:33;;;;;;;3.53;2.50;;;;;;;;;;5077811;28;21376;-55
2022/11/30 13:37:10;;;;;;;3.88;3.05;;;;;;;;;;5076081;28;20055;-56
2022/11/30 13:39:50;;;;;;;4.70;3.10;;;;;;;;;;5082970;28;20042;-55
2022/11/30 13:42:16;;;;;;;3.78;2.92;;;;;;;;;;5079991;28;20016;-55
2022/11/30 13:44:42;;;;;;;5.25;3.50;;;;;;;;;;5082572;28;21259;-55
2022/11/30 13:47:27;;;;;;;5.22;3.92;;;;;;;;;;5079413;28;20028;-55
2022/11/30 13:50:04;;;;;;;6.78;4.43;;;;;;;;;;5082016;28;20031;-54
2022/11/30 13:52:48;;;;;;;6.20;4.15;;;;;;;;;;5081609;28;20119;-55
2022/11/30 13:55:50;;;;;;;6.90;4.00;;;;;;;;;;5082094;28;20047;-55
2022/11/30 13:58:18;;;;;;;8.27;4.85;;;;;;;;;;4994588;28;20036;-54
2022/11/30 14:00:46;;;;;;;7.70;5.15;;;;;;;;;;5066147;28;20048;-55
2022/11/30 14:03:12;;;;;;;7.70;4.78;;;;;;;;;;5083030;28;20047;-55
2022/11/30 14:05:39;;;;;;;9.20;6.22;;;;;;;;;;5080628;28;20036;-54
2022/11/30 14:08:05;;;;;;;8.55;5.57;;;;;;;;;;5083376;28;20495;-54
2022/11/30 14:10:33;;;;;;;8.32;5.65;;;;;;;;;;5076067;28;20089;-56
2022/11/30 14:13:12;;;;;;;8.10;5.18;;;;;;;;;;5093865;28;20208;-54
2022/11/30 14:15:38;;;;;;;8.20;5.38;;;;;;;;;;5086756;28;20479;-54
2022/11/30 14:18:07;;;;;;;8.27;5.00;;;;;;;;;;5085537;28;20031;-55
2022/11/30 14:20:36;;;;;;;9.07;5.30;;;;;;;;;;5098510;28;20035;-54
2022/11/30 14:23:06;;;;;;;10.05;6.03;;;;;;;;;;5098964;28;20056;-55
2022/11/30 14:25:33;;;;;;;9.23;5.78;;;;;;;;;;5099402;28;20035;-56
2022/11/30 14:28:00;;;;;;;8.73;5.45;;;;;;;;;;5097938;28;20034;-55
2022/11/30 14:30:27;;;;;;;10.85;5.43;;;;;;;;;;5097959;28;20032;-55
2022/11/30 14:32:59;;;;;;;8.25;5.03;;;;;;;;;;5096205;28;20036;-55
2022/11/30 14:35:28;;;;;;;10.90;6.05;;;;;;;;;;5095676;28;20191;-55
2022/11/30 14:37:56;;;;;;;11.52;6.32;;;;;;;;;;5096045;28;20465;-56
2022/11/30 14:40:24;;;;;;;9.57;5.65;;;;;;;;;;5097856;28;20098;-56
2022/11/30 14:42:51;;;;;;;9.60;5.30;;;;;;;;;;5096273;28;20069;-54
2022/11/30 14:45:22;;;;;;;10.18;5.22;;;;;;;;;;5096673;28;20024;-54
2022/11/30 14:47:51;;;;;;;12.02;6.03;;;;;;;;;;5096294;28;20506;-54
2022/11/30 14:50:24;;;;;;;11.50;6.28;;;;;;;;;;5097475;28;20031;-54
2022/11/30 14:52:55;;;;;;;10.60;5.45;;;;;;;;;;5096780;28;20106;-54
2022/11/30 14:55:24;;;;;;;10.43;5.78;;;;;;;;;;5096194;28;20090;-54
2022/11/30 14:58:08;;;;;;;10.45;5.60;;;;;;;;;;5095740;28;20027;-54
2022/11/30 15:00:38;;;;;;;9.52;4.78;;;;;;;;;;5097341;28;20503;-52
2022/11/30 15:03:05;;;;;;;10.45;5.80;;;;;;;;;;5097194;28;20466;-53
2022/11/30 15:05:31;;;;;;;8.18;5.10;;;;;;;;;;5097310;28;20108;-55
2022/11/30 15:07:57;;;;;;;10.70;6.13;;;;;;;;;;5099708;28;20495;-54
2022/11/30 15:10:28;;;;;;;10.13;6.68;;;;;;;;;;5098036;28;20038;-54
2022/11/30 15:12:54;;;;;;;9.43;5.95;;;;;;;;;;5093235;28;20404;-54
2022/11/30 15:15:21;;;;;;;10.52;6.13;;;;;;;;;;5091525;28;20062;-54
2022/11/30 15:17:58;;;;;;;9.60;6.38;;;;;;;;;;5085781;28;20106;-54
2022/11/30 15:20:27;;;;;;;15.55;9.00;;;;;;;;;;5093360;28;20027;-54
2022/11/30 15:22:54;;;;;;;14.05;8.52;;;;;;;;;;5087699;28;20502;-53
2022/11/30 15:25:22;;;;;;;15.00;7.97;;;;;;;;;;5085602;28;20043;-52
2022/11/30 15:27:48;;;;;;;12.07;6.72;;;;;;;;;;5090440;28;20023;-54
2022/11/30 15:30:16;;;;;;;14.68;7.90;;;;;;;;;;5092876;28;20145;-55
2022/11/30 15:32:46;;;;;;;12.68;7.32;;;;;;;;;;5088937;28;20038;-55
2022/11/30 15:35:18;;;;;;;10.70;6.28;;;;;;;;;;5094909;28;20031;-55
2022/11/30 15:37:44;;;;;;;8.80;5.50;;;;;;;;;;5092061;28;20088;-54
2022/11/30 15:40:14;;;;;;;8.93;5.47;;;;;;;;;;5088154;28;20103;-55
2022/11/30 15:42:42;;;;;;;7.43;5.00;;;;;;;;;;5090324;28;20031;-54
2022/11/30 15:45:26;;;;;;;8.23;4.65;;;;;;;;;;5095720;28;20552;-54
2022/11/30 15:47:52;;;;;;;;;;;;;;;;;;5087337;28;20424;-52
2022/11/30 15:50:25;;;;;;;6.95;4.63;;;;;;;;;;5090654;28;19904;-53
2022/11/30 15:52:52;;;;;;;11.45;4.72;;;;;;;;;;5088185;28;20093;-55
2022/11/30 15:55:36;;;;;;;6.20;4.35;;;;;;;;;;5085321;28;20027;-55
2022/11/30 15:58:03;;;;;;;5.70;3.85;;;;;;;;;;5087917;28;20044;-55
2022/11/30 16:00:29;;;;;;;7.03;4.28;;;;;;;;;;5087673;28;20780;-54
2022/11/30 16:03:11;;;;;;;6.05;4.10;;;;;;;;;;5092698;28;20024;-55
2022/11/30 16:05:38;;;;;;;5.65;4.07;;;;;;;;;;5086194;28;20306;-55
2022/11/30 16:08:05;;;;;;;5.82;3.83;;;;;;;;;;5091130;28;20031;-54
2022/11/30 16:10:31;;;;;;;5.70;3.53;;;;;;;;;;5092459;28;20039;-53
2022/11/30 16:12:57;;;;;;;5.03;3.53;;;;;;;;;;5084701;28;20465;-54
2022/11/30 16:15:30;;;;;;;5.40;3.90;;;;;;;;;;5083485;28;20035;-51
2022/11/30 16:17:59;;;;;;;5.83;4.03;;;;;;;;;;5082922;28;20126;-54
2022/11/30 16:20:25;;;;;;;4.57;3.42;;;;;;;;;;5086636;28;20102;-55
2022/11/30 16:22:51;;;;;;;6.00;3.90;;;;;;;;;;5089877;28;20152;-54
2022/11/30 16:25:21;;;;;;;5.35;3.50;;;;;;;;;;5093062;28;20463;-55
2022/11/30 16:27:48;;;;;;;6.13;3.90;;;;;;;;;;5090729;28;20024;-54
2022/11/30 16:30:15;;;;;;;6.72;3.55;;;;;;;;;;5095916;28;20028;-54
2022/11/30 16:32:42;;;;;;;6.35;4.35;;;;;;;;;;5085955;28;20027;-56
2022/11/30 16:35:22;;;;;;;6.25;4.50;;;;;;;;;;5087640;28;20224;-56
2022/11/30 16:37:48;;;;;;;8.80;5.00;;;;;;;;;;5088068;28;20015;-56
2022/11/30 16:40:14;;;;;;;6.72;4.07;;;;;;;;;;5089020;28;20047;-54
2022/11/30 16:42:41;;;;;;;6.22;4.22;;;;;;;;;;5086216;28;20372;-53
2022/11/30 16:45:16;;;;;;;7.75;4.35;;;;;;;;;;5088007;28;20066;-56
2022/11/30 16:47:42;;;;;;;6.45;4.25;;;;;;;;;;5084458;28;20036;-55
2022/11/30 16:50:09;;;;;;;5.13;3.53;;;;;;;;;;5088184;28;20152;-54
2022/11/30 16:52:35;;;;;;;7.15;3.83;;;;;;;;;;5091209;28;20032;-55
2022/11/30 16:55:01;;;;;;;6.07;3.83;;;;;;;;;;5089787;28;20027;-54
2022/11/30 16:57:27;;;;;;;6.53;4.10;;;;;;;;;;5083939;28;21366;-54
2022/11/30 16:59:53;;;;;;;5.72;4.20;;;;;;;;;;5094503;28;20071;-54
2022/11/30 17:02:22;;;;;;;7.28;4.75;;;;;;;;;;5088545;28;20024;-54
2022/11/30 17:04:48;;;;;;;8.95;5.80;;;;;;;;;;5085688;28;20527;-52
2022/11/30 17:07:14;;;;;;;9.05;5.18;;;;;;;;;;5085936;28;20115;-52
2022/11/30 17:09:40;;;;;;;7.82;5.22;;;;;;;;;;5094992;28;20055;-52
2022/11/30 17:12:06;;;;;;;6.53;4.55;;;;;;;;;;5073095;28;20040;-51
2022/11/30 17:14:32;;;;;;;9.88;5.88;;;;;;;;;;5094168;28;20039;-50
2022/11/30 17:16:58;;;;;;;9.80;6.07;;;;;;;;;;5086727;28;20438;-51
2022/11/30 17:19:24;;;;;;;10.13;6.75;;;;;;;;;;5087242;28;20115;-55
2022/11/30 17:21:50;;;;;;;9.40;6.07;;;;;;;;;;5085668;28;20114;-52
2022/11/30 17:24:16;;;;;;;8.70;5.70;;;;;;;;;;5089052;28;20032;-53
2022/11/30 17:26:42;;;;;;;7.95;5.30;;;;;;;;;;5085847;28;20424;-53
2022/11/30 17:32:12;;;;;;;8.15;5.22;;;;;;;;;;5089744;28;20026;-53
2022/11/30 17:34:38;;;;;;;8.18;4.55;;;;;;;;;;5095344;28;20505;-52
2022/11/30 17:37:05;;;;;;;8.93;4.97;;;;;;;;;;5088530;28;20709;-53
2022/11/30 17:39:31;;;;;;;6.53;4.22;;;;;;;;;;5091603;28;20126;-50
2022/11/30 17:41:57;;;;;;;6.88;4.78;;;;;;;;;;5086894;28;20031;-50
2022/11/30 17:44:23;;;;;;;6.82;4.13;;;;;;;;;;5087352;28;20024;-51
2022/11/30 17:46:49;;;;;;;7.13;4.18;;;;;;;;;;5080646;28;20027;-53
2022/11/30 17:49:15;;;;;;;6.28;3.80;;;;;;;;;;5064219;28;20430;-53
2022/11/30 17:51:41;;;;;;;8.88;4.53;;;;;;;;;;5086077;28;20028;-54
2022/11/30 17:54:07;;;;;;;5.95;3.70;;;;;;;;;;5088272;28;20036;-52
2022/11/30 17:56:34;;;;;;;6.82;4.20;;;;;;;;;;5080401;28;20385;-50
2022/11/30 17:59:00;;;;;;;6.78;4.22;;;;;;;;;;5086066;28;20067;-52
2022/11/30 18:01:26;;;;;;;7.78;4.60;;;;;;;;;;5087935;28;20070;-51
2022/11/30 18:03:53;;;;;;;7.45;4.75;;;;;;;;;;5086085;28;20024;-53
2022/11/30 18:06:19;;;;;;;7.13;4.45;;;;;;;;;;5078950;28;20030;-50
2022/11/30 18:08:45;;;;;;;7.70;5.10;;;;;;;;;;5082559;28;20127;-51
2022/11/30 18:11:19;;;;;;;10.65;5.45;;;;;;;;;;5090902;28;20035;-51
2022/11/30 18:13:45;;;;;;;9.50;5.72;;;;;;;;;;5099190;28;20043;-54
2022/11/30 18:16:11;;;;;;;9.75;6.15;;;;;;;;;;5096404;28;20392;-53
2022/11/30 18:18:37;;;;;;;10.20;6.00;;;;;;;;;;5099629;28;20308;-51
2022/11/30 18:21:05;;;;;;;12.10;6.32;;;;;;;;;;5097090;28;20392;-53
2022/11/30 18:23:33;;;;;;;10.68;6.28;;;;;;;;;;5099275;28;20034;-53
2022/11/30 18:25:59;;;;;;;8.02;5.45;;;;;;;;;;5096664;28;20146;-53
2022/11/30 18:28:25;;;;;;;8.00;5.25;;;;;;;;;;5097874;28;20039;-52
2022/11/30 18:30:52;;;;;;;7.80;4.60;;;;;;;;;;5099926;28;20019;-54
2022/11/30 18:33:18;;;;;;;9.15;4.95;;;;;;;;;;5081599;28;20506;-53
2022/11/30 18:35:44;;;;;;;9.55;5.45;;;;;;;;;;5097560;28;20912;-54
2022/11/30 18:38:10;;;;;;;9.63;4.80;;;;;;;;;;5098999;28;20070;-51
2022/11/30 18:40:37;;;;;;;10.02;5.45;;;;;;;;;;5102848;28;20038;-52
2022/11/30 18:43:03;;;;;;;8.57;5.30;;;;;;;;;;5100896;28;20092;-52
2022/11/30 18:45:32;;;;;;;9.63;5.22;;;;;;;;;;5087295;28;21197;-52
2022/11/30 18:47:58;;;;;;;10.13;5.65;;;;;;;;;;5087826;28;20391;-52
2022/11/30 18:50:24;;;;;;;8.82;4.43;;;;;;;;;;5106187;28;20023;-53
2022/11/30 18:52:51;;;;;;;6.85;4.47;;;;;;;;;;5105976;28;20039;-53
2022/11/30 18:55:17;;;;;;;7.90;4.72;;;;;;;;;;5104563;28;20072;-53
2022/11/30 18:57:43;;;;;;;9.90;4.80;;;;;;;;;;5104747;28;20035;-50
2022/11/30 19:00:10;;;;;;;8.52;5.70;;;;;;;;;;5105627;28;20115;-53
2022/11/30 19:02:36;;;;;;;9.18;5.28;;;;;;;;;;5104956;28;20142;-53
2022/11/30 19:05:02;;;;;;;8.52;5.32;;;;;;;;;;5106230;28;20023;-54
2022/11/30 19:07:28;;;;;;;7.03;4.80;;;;;;;;;;5102113;28;20043;-52
2022/11/30 19:09:54;;;;;;;7.38;5.10;;;;;;;;;;5105758;28;20027;-51
2022/11/30 19:12:20;;;;;;;7.72;5.07;;;;;;;;;;5085482;28;20055;-52
2022/11/30 19:14:47;;;;;;;8.15;5.15;;;;;;;;;;5084380;28;20032;-54
2022/11/30 19:17:14;;;;;;;8.80;5.53;;;;;;;;;;5077487;28;20101;-53
2022/11/30 19:19:40;;;;;;;8.98;5.18;;;;;;;;;;5060835;28;20526;-53
2022/11/30 19:22:06;;;;;;;7.97;4.85;;;;;;;;;;5083451;28;20692;-52
2022/11/30 19:24:33;;;;;;;7.22;4.70;;;;;;;;;;5086180;28;20044;-54
2022/11/30 19:26:59;;;;;;;9.07;4.70;;;;;;;;;;5081604;28;20577;-52
2022/11/30 19:29:25;;;;;;;7.65;4.88;;;;;;;;;;5085139;28;20028;-52
2022/11/30 19:31:51;;;;;;;8.20;4.75;;;;;;;;;;5081479;28;20024;-51
2022/11/30 19:34:17;;;;;;;8.88;5.93;;;;;;;;;;5084774;28;20040;-53
2022/11/30 19:36:44;;;;;;;8.02;4.50;;;;;;;;;;5078669;28;20034;-52
2022/11/30 19:39:10;;;;;;;8.10;5.00;;;;;;;;;;5036304;28;20040;-54
2022/11/30 19:41:36;;;;;;;8.27;5.03;;;;;;;;;;5055317;28;20043;-53
2022/11/30 19:44:02;;;;;;;8.57;5.68;;;;;;;;;;5074691;28;20035;-52
2022/11/30 19:46:30;;;;;;;10.05;5.65;;;;;;;;;;5061630;28;20024;-54
2022/11/30 19:48:59;;;;;;;9.60;5.10;;;;;;;;;;5082475;28;20553;-55
2022/11/30 19:51:25;;;;;;;10.05;6.10;;;;;;;;;;5082531;28;20042;-53
2022/11/30 19:53:56;;;;;;;9.25;5.60;;;;;;;;;;5082362;28;20033;-52
2022/11/30 19:56:22;;;;;;;9.05;5.57;;;;;;;;;;5081110;28;20028;-53
2022/11/30 19:58:48;;;;;;;9.77;5.43;;;;;;;;;;5083250;28;20043;-50
2022/11/30 20:01:18;;;;;;;12.02;5.90;;;;;;;;;;5081404;28;20114;-52
2022/11/30 20:03:44;;;;;;;8.98;5.47;;;;;;;;;;5083983;28;20024;-52
2022/11/30 20:06:10;;;;;;;9.40;5.53;;;;;;;;;;5081553;28;20681;-54